Time,TemperatureF,DewpointF,PressureIn,WindDirection,WindDirectionDegrees,WindSpeedMPH,WindSpeedGustMPH,Humidity,HourlyPrecipIn,Conditions,Clouds,dailyrainin,SoftwareType,DateUTC
2013-03-16 00:06:00,43.2,29.8,29.73,NW,320,5.0,8.0,59,0.00,BKN,,0.00,WeatherDisplay:10.37,2013-03-16 04:06:00,
2013-03-16 00:11:00,43.0,29.6,29.73,NW,325,2.0,8.0,59,0.00,BKN,,0.00,WeatherDisplay:10.37,2013-03-16 04:11:00,
2013-03-16 00:16:00,43.0,29.6,29.73,NNW,331,2.0,6.0,59,0.00,BKN,,0.00,WeatherDisplay:10.37,2013-03-16 04:16:00,
2013-03-16 00:21:00,42.8,29.9,29.73,NW,324,2.0,6.0,60,0.00,BKN,,0.00,WeatherDisplay:10.37,2013-03-16 04:21:00,
2013-03-16 00:26:00,42.6,30.1,29.74,NW,322,3.0,7.0,61,0.00,BKN,,0.00,WeatherDisplay:10.37,2013-03-16 04:26:00,
2013-03-16 00:35:00,42.4,29.9,29.74,NNW,336,1.0,6.0,61,0.00,BKN,,0.00,WeatherDisplay:10.37,2013-03-16 04:35:00,
2013-03-16 00:40:00,42.3,29.8,29.74,NW,305,2.0,5.0,61,0.00,BKN,,0.00,WeatherDisplay:10.37,2013-03-16 04:40:00,
2013-03-16 00:45:00,42.1,29.6,29.74,West,268,2.0,7.0,61,0.00,BKN,,0.00,WeatherDisplay:10.37,2013-03-16 04:45:00,
2013-03-16 00:50:00,41.9,29.8,29.74,WNW,295,6.0,10.0,62,0.00,BKN,,0.00,WeatherDisplay:10.37,2013-03-16 04:50:00,
2013-03-16 00:55:00,41.9,29.8,29.73,NW,312,5.0,10.0,62,0.00,BKN,,0.00,WeatherDisplay:10.37,2013-03-16 04:55:00,
2013-03-16 01:00:00,41.7,29.3,29.73,NW,309,5.0,9.0,61,0.00,BKN,,0.00,WeatherDisplay:10.37,2013-03-16 05:00:00,
2013-03-16 01:05:00,41.5,29.1,29.73,NW,304,2.0,11.0,61,0.00,BKN,,0.00,WeatherDisplay:10.37,2013-03-16 05:05:00,
2013-03-16 01:10:00,41.4,28.9,29.73,NW,306,5.0,11.0,61,0.00,BKN,,0.00,WeatherDisplay:10.37,2013-03-16 05:10:00,
2013-03-16 01:15:00,41.2,28.7,29.73,NNW,330,5.0,8.0,61,0.00,OVC,,0.00,WeatherDisplay:10.37,2013-03-16 05:15:00,
2013-03-16 01:20:00,41.0,28.6,29.74,NNW,335,3.0,8.0,61,0.00,OVC,,0.00,WeatherDisplay:10.37,2013-03-16 05:20:00,
2013-03-16 01:25:00,41.0,28.1,29.74,NW,319,1.0,8.0,60,0.00,OVC,,0.00,WeatherDisplay:10.37,2013-03-16 05:25:00,
2013-03-16 01:30:00,40.8,28.4,29.74,NNW,327,2.0,6.0,61,0.00,OVC,,0.00,WeatherDisplay:10.37,2013-03-16 05:30:00,
2013-03-16 01:35:00,40.5,28.1,29.74,NW,315,6.0,8.0,61,0.00,OVC,,0.00,WeatherDisplay:10.37,2013-03-16 05:35:00,
2013-03-16 01:40:00,40.5,28.1,29.74,WNW,297,5.0,7.0,61,0.00,OVC,,0.00,WeatherDisplay:10.37,2013-03-16 05:40:00,
2013-03-16 01:45:00,40.3,27.9,29.74,WNW,284,2.0,8.0,61,0.00,OVC,,0.00,WeatherDisplay:10.37,2013-03-16 05:45:00,
2013-03-16 01:50:00,40.1,27.3,29.74,WNW,293,5.0,8.0,60,0.00,OVC,,0.00,WeatherDisplay:10.37,2013-03-16 05:50:00,
2013-03-16 01:55:00,39.9,27.1,29.74,NW,308,1.0,8.0,60,0.00,OVC,,0.00,WeatherDisplay:10.37,2013-03-16 05:55:00,
2013-03-16 02:00:00,39.7,27.3,29.74,NW,316,1.0,4.0,61,0.00,OVC,,0.00,WeatherDisplay:10.37,2013-03-16 06:00:00,
2013-03-16 02:05:00,39.4,27.0,29.74,NNW,331,3.0,6.0,61,0.00,OVC,,0.00,WeatherDisplay:10.37,2013-03-16 06:05:00,
2013-03-16 02:10:00,39.2,26.9,29.74,NNW,328,1.0,4.0,61,0.00,OVC,,0.00,WeatherDisplay:10.37,2013-03-16 06:10:00,
2013-03-16 02:15:00,38.8,27.3,29.75,NNW,334,2.0,4.0,63,0.00,CLR,,0.00,WeatherDisplay:10.37,2013-03-16 06:15:00,
2013-03-16 02:20:00,38.8,27.3,29.75,NNW,338,1.0,3.0,63,0.00,CLR,,0.00,WeatherDisplay:10.37,2013-03-16 06:20:00,
2013-03-16 02:25:00,38.5,27.0,29.75,North,10,2.0,4.0,63,0.00,CLR,,0.00,WeatherDisplay:10.37,2013-03-16 06:25:00,
2013-03-16 02:30:00,38.3,26.8,29.76,NNW,330,1.0,4.0,63,0.00,CLR,,0.00,WeatherDisplay:10.37,2013-03-16 06:30:00,
2013-03-16 02:35:00,38.1,26.6,29.75,WNW,295,5.0,9.0,63,0.00,CLR,,0.00,WeatherDisplay:10.37,2013-03-16 06:35:00,
2013-03-16 02:41:00,38.3,26.8,29.76,NW,314,2.0,8.0,63,0.00,CLR,,0.00,WeatherDisplay:10.37,2013-03-16 06:41:00,
2013-03-16 02:46:00,38.3,26.4,29.75,WNW,302,1.0,6.0,62,0.00,CLR,,0.00,WeatherDisplay:10.37,2013-03-16 06:46:00,
2013-03-16 02:51:00,38.3,26.4,29.76,WNW,302,2.0,3.0,62,0.00,CLR,,0.00,WeatherDisplay:10.37,2013-03-16 06:51:00,
2013-03-16 02:56:00,38.3,26.0,29.76,NW,313,2.0,6.0,61,0.00,CLR,,0.00,WeatherDisplay:10.37,2013-03-16 06:56:00,
2013-03-16 03:01:00,38.1,25.8,29.76,NW,315,2.0,6.0,61,0.00,CLR,,0.00,WeatherDisplay:10.37,2013-03-16 07:01:00,
2013-03-16 03:06:00,38.1,25.8,29.76,NW,309,2.0,6.0,61,0.00,CLR,,0.00,WeatherDisplay:10.37,2013-03-16 07:06:00,
2013-03-16 03:11:00,37.9,25.7,29.76,NW,312,5.0,8.0,61,0.00,CLR,,0.00,WeatherDisplay:10.37,2013-03-16 07:11:00,
2013-03-16 03:16:00,37.8,25.5,29.76,NW,309,3.0,6.0,61,0.00,CLR,,0.00,WeatherDisplay:10.37,2013-03-16 07:16:00,
2013-03-16 03:21:00,37.8,25.5,29.76,WNW,299,3.0,8.0,61,0.00,CLR,,0.00,WeatherDisplay:10.37,2013-03-16 07:21:00,
2013-03-16 03:26:00,37.6,25.3,29.76,NW,308,2.0,6.0,61,0.00,CLR,,0.00,WeatherDisplay:10.37,2013-03-16 07:26:00,
2013-03-16 03:31:00,37.4,24.3,29.77,WNW,302,2.0,11.0,59,0.00,CLR,,0.00,WeatherDisplay:10.37,2013-03-16 07:31:00,
2013-03-16 03:36:00,37.6,24.9,29.76,NW,317,0.0,10.0,60,0.00,CLR,,0.00,WeatherDisplay:10.37,2013-03-16 07:36:00,
2013-03-16 03:41:00,37.4,24.8,29.76,North,355,0.0,2.0,60,0.00,CLR,,0.00,WeatherDisplay:10.37,2013-03-16 07:41:00,
2013-03-16 03:46:00,37.2,22.9,29.76,WNW,299,1.0,2.0,56,0.00,CLR,,0.00,WeatherDisplay:10.37,2013-03-16 07:46:00,
2013-03-16 03:51:00,36.9,22.6,29.76,NW,311,0.0,2.0,56,0.00,CLR,,0.00,WeatherDisplay:10.37,2013-03-16 07:51:00,
2013-03-16 03:56:00,36.7,22.9,29.76,NE,45,1.0,2.0,57,0.00,CLR,,0.00,WeatherDisplay:10.37,2013-03-16 07:56:00,
2013-03-16 04:01:00,36.3,22.5,29.76,ENE,76,1.0,2.0,57,0.00,CLR,,0.00,WeatherDisplay:10.37,2013-03-16 08:01:00,
2013-03-16 04:06:00,36.3,22.5,29.76,SSW,207,1.0,2.0,57,0.00,CLR,,0.00,WeatherDisplay:10.37,2013-03-16 08:06:00,
2013-03-16 04:11:00,36.0,22.2,29.76,West,273,2.0,4.0,57,0.00,CLR,,0.00,WeatherDisplay:10.37,2013-03-16 08:11:00,
2013-03-16 04:16:00,35.8,22.4,29.76,West,280,1.0,4.0,58,0.00,CLR,,0.00,WeatherDisplay:10.37,2013-03-16 08:16:00,
2013-03-16 04:21:00,35.8,22.0,29.76,West,271,1.0,2.0,57,0.00,CLR,,0.00,WeatherDisplay:10.37,2013-03-16 08:21:00,
2013-03-16 04:26:00,35.7,22.3,29.76,NW,310,0.0,1.0,58,0.00,CLR,,0.00,WeatherDisplay:10.37,2013-03-16 08:26:00,
2013-03-16 04:31:00,35.4,22.5,29.76,NW,315,0.0,2.0,59,0.00,CLR,,0.00,WeatherDisplay:10.37,2013-03-16 08:31:00,
2013-03-16 04:41:00,35.1,22.2,29.77,NW,314,1.0,2.0,59,0.00,CLR,,0.00,WeatherDisplay:10.37,2013-03-16 08:41:00,
2013-03-16 04:51:00,35.1,22.2,29.76,West,261,1.0,4.0,59,0.00,CLR,,0.00,WeatherDisplay:10.37,2013-03-16 08:51:00,
2013-03-16 05:16:00,35.3,22.0,29.77,WNW,302,1.0,3.0,58,0.00,CLR,,0.00,WeatherDisplay:10.37,2013-03-16 09:16:00,
2013-03-16 05:41:00,34.7,21.0,29.77,NW,316,0.0,2.0,57,0.00,CLR,,0.00,WeatherDisplay:10.37,2013-03-16 09:41:00,
2013-03-16 05:56:00,34.4,20.8,29.78,East,100,1.0,2.0,57,0.00,CLR,,0.00,WeatherDisplay:10.37,2013-03-16 09:56:00,
2013-03-16 06:06:00,34.2,20.1,29.78,SSW,203,0.0,2.0,56,0.00,CLR,,0.00,WeatherDisplay:10.37,2013-03-16 10:06:00,
2013-03-16 06:16:00,34.0,20.3,29.78,West,270,1.0,2.0,57,0.00,CLR,,0.00,WeatherDisplay:10.37,2013-03-16 10:16:00,
2013-03-16 06:21:00,34.0,19.9,29.79,West,270,0.0,2.0,56,0.00,CLR,,0.00,WeatherDisplay:10.37,2013-03-16 10:21:00,
2013-03-16 06:31:00,33.8,20.2,29.79,NE,46,1.0,2.0,57,0.00,CLR,,0.00,WeatherDisplay:10.37,2013-03-16 10:31:00,
2013-03-16 06:40:00,33.6,20.4,29.79,North,5,1.0,2.0,58,0.00,CLR,,0.00,WeatherDisplay:10.37,2013-03-16 10:40:00,
2013-03-16 06:45:00,33.4,20.2,29.79,North,0,1.0,3.0,58,0.00,CLR,,0.00,WeatherDisplay:10.37,2013-03-16 10:45:00,
2013-03-16 06:50:00,33.4,20.6,29.78,North,356,1.0,2.0,59,0.00,CLR,,0.00,WeatherDisplay:10.37,2013-03-16 10:50:00,
2013-03-16 06:55:00,33.4,20.6,29.78,NNE,16,0.0,2.0,59,0.00,CLR,,0.00,WeatherDisplay:10.37,2013-03-16 10:55:00,
2013-03-16 07:00:00,33.3,20.5,29.78,NE,46,1.0,3.0,59,0.00,CLR,,0.00,WeatherDisplay:10.37,2013-03-16 11:00:00,
2013-03-16 07:05:00,33.3,20.9,29.78,NNE,23,1.0,3.0,60,0.00,CLR,,0.00,WeatherDisplay:10.37,2013-03-16 11:05:00,
2013-03-16 07:10:00,33.3,20.9,29.78,North,0,1.0,3.0,60,0.00,CLR,,0.00,WeatherDisplay:10.37,2013-03-16 11:10:00,
2013-03-16 07:15:00,33.3,20.9,29.79,North,5,1.0,3.0,60,0.00,CLR,,0.00,WeatherDisplay:10.37,2013-03-16 11:15:00,
2013-03-16 07:20:00,33.1,20.7,29.79,North,351,2.0,3.0,60,0.00,CLR,,0.00,WeatherDisplay:10.37,2013-03-16 11:20:00,
2013-03-16 07:26:00,33.1,20.7,29.79,NNW,347,2.0,5.0,60,0.00,CLR,,0.00,WeatherDisplay:10.37,2013-03-16 11:26:00,
2013-03-16 07:36:00,33.3,20.9,29.80,NE,37,1.0,5.0,60,0.00,CLR,,0.00,WeatherDisplay:10.37,2013-03-16 11:36:00,
2013-03-16 07:41:00,33.4,21.0,29.81,NE,52,2.0,3.0,60,0.00,CLR,,0.00,WeatherDisplay:10.37,2013-03-16 11:41:00,
2013-03-16 07:51:00,33.8,21.4,29.80,NNE,18,1.0,2.0,60,0.00,CLR,,0.00,WeatherDisplay:10.37,2013-03-16 11:51:00,
2013-03-16 07:56:00,34.0,21.5,29.81,NNE,22,1.0,2.0,60,0.00,CLR,,0.00,WeatherDisplay:10.37,2013-03-16 11:56:00,
2013-03-16 08:06:00,34.3,21.5,29.81,North,9,1.0,4.0,59,0.00,OVC,,0.00,WeatherDisplay:10.37,2013-03-16 12:06:00,
2013-03-16 08:11:00,34.5,21.7,29.81,North,350,2.0,5.0,59,0.00,OVC,,0.00,WeatherDisplay:10.37,2013-03-16 12:11:00,
2013-03-16 08:21:00,34.7,21.0,29.81,NNE,20,1.0,4.0,57,0.00,OVC,,0.00,WeatherDisplay:10.37,2013-03-16 12:21:00,
2013-03-16 08:26:00,34.9,21.2,29.81,North,357,2.0,4.0,57,0.00,OVC,,0.00,WeatherDisplay:10.37,2013-03-16 12:26:00,
2013-03-16 08:31:00,35.1,21.3,29.81,North,1,2.0,4.0,57,0.00,OVC,,0.00,WeatherDisplay:10.37,2013-03-16 12:31:00,
2013-03-16 08:40:00,35.2,21.1,29.81,NNW,346,2.0,4.0,56,0.00,OVC,,0.00,WeatherDisplay:10.37,2013-03-16 12:40:00,
2013-03-16 08:45:00,35.2,21.1,29.81,NNW,341,3.0,6.0,56,0.00,OVC,,0.00,WeatherDisplay:10.37,2013-03-16 12:45:00,
2013-03-16 08:50:00,35.4,20.8,29.81,NNW,338,1.0,6.0,55,0.00,OVC,,0.00,WeatherDisplay:10.37,2013-03-16 12:50:00,
2013-03-16 08:55:00,35.4,20.8,29.81,North,4,3.0,6.0,55,0.00,OVC,,0.00,WeatherDisplay:10.37,2013-03-16 12:55:00,
2013-03-16 09:00:00,35.4,20.8,29.80,NNW,342,3.0,6.0,55,0.00,OVC,,0.00,WeatherDisplay:10.37,2013-03-16 13:00:00,
2013-03-16 09:05:00,35.6,20.6,29.80,NNW,334,2.0,5.0,54,0.00,OVC,,0.00,WeatherDisplay:10.37,2013-03-16 13:05:00,
2013-03-16 09:10:00,35.6,20.1,29.79,NNE,25,2.0,4.0,53,0.00,OVC,,0.00,WeatherDisplay:10.37,2013-03-16 13:10:00,
2013-03-16 09:15:00,35.6,20.1,29.78,NNE,25,1.0,5.0,53,0.00,OVC,,0.00,WeatherDisplay:10.37,2013-03-16 13:15:00,
2013-03-16 09:20:00,35.8,20.7,29.79,NNE,12,2.0,4.0,54,0.00,OVC,,0.00,WeatherDisplay:10.37,2013-03-16 13:20:00,
2013-03-16 09:25:00,35.8,20.7,29.79,NE,43,3.0,7.0,54,0.00,OVC,,0.00,WeatherDisplay:10.37,2013-03-16 13:25:00,
2013-03-16 09:30:00,35.8,20.3,29.79,NE,51,1.0,7.0,53,0.00,OVC,,0.00,WeatherDisplay:10.37,2013-03-16 13:30:00,
2013-03-16 09:35:00,35.8,20.3,29.79,NE,55,2.0,6.0,53,0.00,OVC,,0.00,WeatherDisplay:10.37,2013-03-16 13:35:00,
2013-03-16 09:40:00,35.8,20.3,29.79,NE,52,1.0,4.0,53,0.00,OVC,,0.00,WeatherDisplay:10.37,2013-03-16 13:40:00,
2013-03-16 09:45:00,36.0,20.5,29.80,NNW,327,1.0,4.0,53,0.00,OVC,,0.00,WeatherDisplay:10.37,2013-03-16 13:45:00,
2013-03-16 09:50:00,36.1,20.6,29.80,NNW,338,3.0,6.0,53,0.00,OVC,,0.00,WeatherDisplay:10.37,2013-03-16 13:50:00,
2013-03-16 09:55:00,36.1,20.2,29.80,NNW,345,5.0,6.0,52,0.00,OVC,,0.00,WeatherDisplay:10.37,2013-03-16 13:55:00,
2013-03-16 10:00:00,36.3,20.4,29.80,North,353,1.0,6.0,52,0.00,OVC,,0.00,WeatherDisplay:10.37,2013-03-16 14:00:00,
2013-03-16 10:05:00,36.5,20.6,29.80,North,11,2.0,4.0,52,0.00,OVC,,0.00,WeatherDisplay:10.37,2013-03-16 14:05:00,
2013-03-16 10:10:00,36.9,20.9,29.80,North,357,3.0,5.0,52,0.00,OVC,,0.00,WeatherDisplay:10.37,2013-03-16 14:10:00,
2013-03-16 10:15:00,37.0,20.6,29.79,NNW,344,1.0,5.0,51,0.00,OVC,,0.00,WeatherDisplay:10.37,2013-03-16 14:15:00,
2013-03-16 10:20:00,37.0,20.6,29.79,NNW,345,2.0,6.0,51,0.00,OVC,,0.00,WeatherDisplay:10.37,2013-03-16 14:20:00,
2013-03-16 10:25:00,37.0,20.6,29.79,North,357,2.0,4.0,51,0.00,OVC,,0.00,WeatherDisplay:10.37,2013-03-16 14:25:00,
2013-03-16 10:30:00,37.2,20.7,29.79,NNE,27,2.0,5.0,51,0.00,OVC,,0.00,WeatherDisplay:10.37,2013-03-16 14:30:00,
2013-03-16 10:35:00,37.2,20.7,29.79,NE,35,3.0,6.0,51,0.00,OVC,,0.00,WeatherDisplay:10.37,2013-03-16 14:35:00,
2013-03-16 10:40:00,37.4,22.7,29.79,NE,50,2.0,6.0,55,0.00,OVC,,0.00,WeatherDisplay:10.37,2013-03-16 14:40:00,
2013-03-16 10:45:00,37.4,22.7,29.78,NE,47,2.0,6.0,55,0.00,OVC,,0.00,WeatherDisplay:10.37,2013-03-16 14:45:00,
2013-03-16 10:50:00,37.4,22.3,29.79,NNE,28,2.0,6.0,54,0.00,OVC,,0.00,WeatherDisplay:10.37,2013-03-16 14:50:00,
2013-03-16 10:55:00,37.6,22.0,29.79,NNW,344,2.0,6.0,53,0.00,OVC,,0.00,WeatherDisplay:10.37,2013-03-16 14:55:00,
2013-03-16 11:01:00,37.7,22.1,29.80,NNE,23,1.0,3.0,53,0.00,OVC,,0.00,WeatherDisplay:10.37,2013-03-16 15:01:00,
2013-03-16 11:06:00,37.9,23.1,29.80,NE,47,2.0,5.0,55,0.00,OVC,,0.00,WeatherDisplay:10.37,2013-03-16 15:06:00,
2013-03-16 11:11:00,38.1,23.8,29.80,NE,52,2.0,4.0,56,0.00,OVC,,0.00,WeatherDisplay:10.37,2013-03-16 15:11:00,
2013-03-16 11:26:00,39.0,24.2,29.80,ESE,120,2.0,5.0,55,0.00,OVC,,0.00,WeatherDisplay:10.37,2013-03-16 15:26:00,
2013-03-16 11:41:00,38.3,24.0,29.79,NNW,346,2.0,6.0,56,0.00,OVC,,0.00,WeatherDisplay:10.37,2013-03-16 15:41:00,
2013-03-16 11:56:00,39.7,25.3,29.78,North,5,1.0,3.0,56,0.00,OVC,,0.00,WeatherDisplay:10.37,2013-03-16 15:56:00,
2013-03-16 12:06:00,39.7,25.3,29.78,NE,38,2.0,6.0,56,0.00,OVC,,0.00,WeatherDisplay:10.37,2013-03-16 16:06:00,
2013-03-16 12:11:00,39.6,25.2,29.78,NE,50,0.0,3.0,56,0.00,OVC,,0.00,WeatherDisplay:10.37,2013-03-16 16:11:00,
2013-03-16 12:16:00,39.4,25.0,29.78,NW,326,1.0,4.0,56,0.00,OVC,,0.00,WeatherDisplay:10.37,2013-03-16 16:16:00,
2013-03-16 12:26:00,39.0,25.5,29.77,North,2,2.0,4.0,58,0.00,OVC,,0.00,WeatherDisplay:10.37,2013-03-16 16:26:00,
2013-03-16 12:31:00,39.0,25.5,29.77,NE,37,1.0,4.0,58,0.00,OVC,,0.00,WeatherDisplay:10.37,2013-03-16 16:31:00,
2013-03-16 12:40:00,38.3,24.8,29.77,SE,135,1.0,3.0,58,0.00,OVC,,0.00,WeatherDisplay:10.37,2013-03-16 16:40:00,
2013-03-16 12:45:00,38.1,25.0,29.77,ESE,113,1.0,3.0,59,0.00,OVC,,0.00,WeatherDisplay:10.37,2013-03-16 16:45:00,
2013-03-16 12:50:00,37.7,24.6,29.77,SSW,192,2.0,5.0,59,0.00,OVC,,0.00,WeatherDisplay:10.37,2013-03-16 16:50:00,
2013-03-16 12:56:00,36.9,22.6,29.77,SW,234,1.0,4.0,56,0.00,OVC,,0.00,WeatherDisplay:10.37,2013-03-16 16:56:00,
2013-03-16 13:01:00,36.5,22.7,29.77,SW,214,1.0,2.0,57,0.00,OVC,,0.00,WeatherDisplay:10.37,2013-03-16 17:01:00,
2013-03-16 13:06:00,36.6,24.4,29.77,ENE,57,1.0,2.0,61,0.00,-SN,,0.00,WeatherDisplay:10.37,2013-03-16 17:06:00,
2013-03-16 13:11:00,36.7,24.9,29.77,ESE,110,0.0,2.0,62,0.00,-SN,,0.00,WeatherDisplay:10.37,2013-03-16 17:11:00,
2013-03-16 13:21:00,36.2,25.2,29.78,ESE,113,1.0,4.0,64,0.00,-SN,,0.00,WeatherDisplay:10.37,2013-03-16 17:21:00,
2013-03-16 13:26:00,36.0,25.4,29.77,SE,125,1.0,4.0,65,0.00,-SN,,0.00,WeatherDisplay:10.37,2013-03-16 17:26:00,
2013-03-16 13:31:00,35.6,25.4,29.76,SE,132,1.0,4.0,66,0.00,-SN,,0.00,WeatherDisplay:10.37,2013-03-16 17:31:00,
2013-03-16 13:41:00,35.5,26.7,29.76,SE,132,1.0,2.0,70,0.00,-SN,,0.00,WeatherDisplay:10.37,2013-03-16 17:41:00,
2013-03-16 13:46:00,35.2,26.8,29.76,South,184,0.0,2.0,71,0.00,-SN,,0.00,WeatherDisplay:10.37,2013-03-16 17:46:00,
2013-03-16 13:51:00,35.1,26.9,29.76,SE,136,0.0,1.0,72,0.00,-SN,,0.00,WeatherDisplay:10.37,2013-03-16 17:51:00,
2013-03-16 14:21:00,35.1,27.7,29.76,ENE,60,0.0,2.0,74,0.00,-SN,,0.00,WeatherDisplay:10.37,2013-03-16 18:21:00,
2013-03-16 14:26:00,34.9,27.4,29.76,East,83,0.0,2.0,74,0.00,-SN,,0.00,WeatherDisplay:10.37,2013-03-16 18:26:00,
2013-03-16 14:31:00,34.9,27.8,29.76,North,5,1.0,2.0,75,0.00,-SN,,0.00,WeatherDisplay:10.37,2013-03-16 18:31:00,
2013-03-16 14:36:00,34.9,27.8,29.76,North,3,0.0,2.0,75,0.00,-SN,,0.00,WeatherDisplay:10.37,2013-03-16 18:36:00,
2013-03-16 14:45:00,35.2,28.4,29.75,NNE,20,0.0,2.0,76,0.00,-SN,,0.00,WeatherDisplay:10.37,2013-03-16 18:45:00,
2013-03-16 14:50:00,35.2,28.8,29.73,ENE,58,1.0,3.0,77,0.00,-SN,,0.00,WeatherDisplay:10.37,2013-03-16 18:50:00,
2013-03-16 14:55:00,35.4,28.9,29.73,ENE,57,1.0,3.0,77,0.00,-SN,,0.00,WeatherDisplay:10.37,2013-03-16 18:55:00,
2013-03-16 15:00:00,35.6,29.1,29.74,NE,49,1.0,4.0,77,0.00,-SN,,0.00,WeatherDisplay:10.37,2013-03-16 19:00:00,
2013-03-16 15:05:00,36.0,29.4,29.74,North,11,2.0,4.0,77,0.00,-SN,,0.00,WeatherDisplay:10.37,2013-03-16 19:05:00,
2013-03-16 15:11:00,36.3,29.8,29.73,North,359,1.0,4.0,77,0.00,-SN,,0.00,WeatherDisplay:10.37,2013-03-16 19:11:00,
2013-03-16 15:16:00,36.6,30.0,29.73,NNE,24,1.0,4.0,77,0.00,-SN,,0.00,WeatherDisplay:10.37,2013-03-16 19:16:00,
2013-03-16 15:21:00,37.0,30.4,29.74,NE,36,1.0,4.0,77,0.00,-SN,,0.00,WeatherDisplay:10.37,2013-03-16 19:21:00,
2013-03-16 15:51:00,36.7,30.1,29.73,NNE,22,1.0,5.0,77,0.00,-SN,,0.00,WeatherDisplay:10.37,2013-03-16 19:51:00,
2013-03-16 15:56:00,36.5,29.7,29.73,NE,49,2.0,4.0,76,0.00,-SN,,0.00,WeatherDisplay:10.37,2013-03-16 19:56:00,
2013-03-16 16:11:00,36.4,29.9,29.73,NNE,18,1.0,3.0,77,0.00,-SN,,0.00,WeatherDisplay:10.37,2013-03-16 20:11:00,
2013-03-16 16:16:00,36.3,29.8,29.72,NNE,21,2.0,5.0,77,0.00,OVC,,0.00,WeatherDisplay:10.37,2013-03-16 20:16:00,
2013-03-16 16:21:00,36.0,29.4,29.73,NNE,32,1.0,3.0,77,0.00,OVC,,0.00,WeatherDisplay:10.37,2013-03-16 20:21:00,
2013-03-16 16:26:00,35.8,29.3,29.73,NE,54,2.0,4.0,77,0.00,OVC,,0.00,WeatherDisplay:10.37,2013-03-16 20:26:00,
2013-03-16 16:31:00,35.6,29.1,29.73,ENE,64,2.0,5.0,77,0.00,OVC,,0.00,WeatherDisplay:10.37,2013-03-16 20:31:00,
2013-03-16 16:40:00,35.4,29.6,29.73,NNE,31,1.0,2.0,79,0.00,-SN,,0.00,WeatherDisplay:10.37,2013-03-16 20:40:00,
2013-03-16 16:45:00,35.4,29.9,29.72,NE,42,2.0,5.0,80,0.00,-SN,,0.00,WeatherDisplay:10.37,2013-03-16 20:45:00,
2013-03-16 16:50:00,35.4,29.9,29.73,NNE,33,1.0,5.0,80,0.00,-SN,,0.00,WeatherDisplay:10.37,2013-03-16 20:50:00,
2013-03-16 16:55:00,35.4,29.8,29.73,NNE,20,2.0,4.0,80,0.00,-SN,,0.00,WeatherDisplay:10.37,2013-03-16 20:55:00,
2013-03-16 17:01:00,35.2,29.7,29.74,NNE,27,1.0,4.0,80,0.00,-SN,,0.00,WeatherDisplay:10.37,2013-03-16 21:01:00,
2013-03-16 17:06:00,35.2,29.7,29.74,NE,39,0.0,4.0,80,0.00,-SN,,0.00,WeatherDisplay:10.37,2013-03-16 21:06:00,
2013-03-16 17:11:00,35.2,30.0,29.73,NE,50,1.0,4.0,81,0.00,-SN,,0.00,WeatherDisplay:10.37,2013-03-16 21:11:00,
2013-03-16 17:16:00,35.1,29.8,29.73,NE,55,1.0,5.0,81,0.00,-SN,,0.00,WeatherDisplay:10.37,2013-03-16 21:16:00,
2013-03-16 17:26:00,35.1,29.8,29.73,NE,47,1.0,3.0,81,0.00,OVC,,0.00,WeatherDisplay:10.37,2013-03-16 21:26:00,
2013-03-16 17:31:00,35.1,29.8,29.73,NE,55,1.0,2.0,81,0.00,OVC,,0.00,WeatherDisplay:10.37,2013-03-16 21:31:00,
2013-03-16 17:36:00,35.1,30.1,29.73,ENE,61,2.0,3.0,82,0.00,OVC,,0.00,WeatherDisplay:10.37,2013-03-16 21:36:00,
2013-03-16 17:46:00,35.2,30.3,29.73,NNE,15,0.0,3.0,82,0.00,OVC,,0.00,WeatherDisplay:10.37,2013-03-16 21:46:00,
2013-03-16 17:51:00,35.2,30.3,29.73,NE,43,1.0,3.0,82,0.00,OVC,,0.00,WeatherDisplay:10.37,2013-03-16 21:51:00,
2013-03-16 17:56:00,35.1,30.1,29.74,NE,52,1.0,2.0,82,0.00,OVC,,0.00,WeatherDisplay:10.37,2013-03-16 21:56:00,
2013-03-16 18:01:00,35.1,30.1,29.73,NE,48,1.0,2.0,82,0.00,OVC,,0.00,WeatherDisplay:10.37,2013-03-16 22:01:00,
2013-03-16 18:06:00,35.1,30.1,29.73,ENE,59,1.0,3.0,82,0.00,OVC,,0.00,WeatherDisplay:10.37,2013-03-16 22:06:00,
2013-03-16 18:11:00,34.9,29.9,29.73,NE,42,1.0,2.0,82,0.00,OVC,,0.00,WeatherDisplay:10.37,2013-03-16 22:11:00,
2013-03-16 18:21:00,34.9,29.9,29.73,NNE,19,1.0,5.0,82,0.00,OVC,,0.00,WeatherDisplay:10.37,2013-03-16 22:21:00,
2013-03-16 18:26:00,34.9,29.9,29.73,NNE,14,1.0,3.0,82,0.00,OVC,,0.00,WeatherDisplay:10.37,2013-03-16 22:26:00,
2013-03-16 18:31:00,34.9,29.9,29.73,North,10,1.0,4.0,82,0.00,OVC,,0.00,WeatherDisplay:10.37,2013-03-16 22:31:00,
2013-03-16 18:40:00,34.8,29.9,29.73,North,354,1.0,2.0,82,0.00,OVC,,0.00,WeatherDisplay:10.37,2013-03-16 22:40:00,
2013-03-16 18:45:00,34.7,29.8,29.73,North,11,1.0,4.0,82,0.00,OVC,,0.00,WeatherDisplay:10.37,2013-03-16 22:45:00,
2013-03-16 18:50:00,34.7,29.8,29.74,NNE,12,2.0,5.0,82,0.00,OVC,,0.00,WeatherDisplay:10.37,2013-03-16 22:50:00,
2013-03-16 18:55:00,34.6,29.7,29.74,North,3,2.0,5.0,82,0.00,OVC,,0.00,WeatherDisplay:10.37,2013-03-16 22:55:00,
2013-03-16 19:00:00,34.5,29.6,29.74,NNE,16,1.0,5.0,82,0.00,OVC,,0.00,WeatherDisplay:10.37,2013-03-16 23:00:00,
2013-03-16 19:05:00,34.5,29.6,29.74,NNE,32,2.0,3.0,82,0.00,OVC,,0.00,WeatherDisplay:10.37,2013-03-16 23:05:00,
2013-03-16 19:10:00,34.5,29.6,29.75,NE,35,1.0,3.0,82,0.00,OVC,,0.00,WeatherDisplay:10.37,2013-03-16 23:10:00,
2013-03-16 19:15:00,34.5,29.6,29.75,NNE,30,1.0,2.0,82,0.00,OVC,,0.00,WeatherDisplay:10.37,2013-03-16 23:15:00,
2013-03-16 19:20:00,34.5,29.6,29.75,North,352,1.0,3.0,82,0.00,OVC,,0.00,WeatherDisplay:10.37,2013-03-16 23:20:00,
2013-03-16 19:25:00,34.5,29.6,29.75,North,2,1.0,4.0,82,0.00,OVC,,0.00,WeatherDisplay:10.37,2013-03-16 23:25:00,
2013-03-16 19:30:00,34.5,29.6,29.76,North,8,1.0,3.0,82,0.00,OVC,,0.00,WeatherDisplay:10.37,2013-03-16 23:30:00,
2013-03-16 19:35:00,34.3,29.4,29.76,NNE,13,2.0,3.0,82,0.00,OVC,,0.00,WeatherDisplay:10.37,2013-03-16 23:35:00,
2013-03-16 19:40:00,34.3,29.4,29.76,NE,35,0.0,2.0,82,0.00,OVC,,0.00,WeatherDisplay:10.37,2013-03-16 23:40:00,
2013-03-16 19:45:00,34.5,29.5,29.76,NNE,25,1.0,3.0,82,0.00,OVC,,0.00,WeatherDisplay:10.37,2013-03-16 23:45:00,
2013-03-16 19:51:00,34.5,29.6,29.77,North,0,0.0,3.0,82,0.00,OVC,,0.00,WeatherDisplay:10.37,2013-03-16 23:51:00,
2013-03-16 19:56:00,34.5,29.6,29.77,North,3,1.0,2.0,82,0.00,OVC,,0.00,WeatherDisplay:10.37,2013-03-16 23:56:00,
2013-03-16 20:01:00,34.5,29.6,29.77,North,356,2.0,3.0,82,0.00,OVC,,0.00,WeatherDisplay:10.37,2013-03-17 00:01:00,
2013-03-16 20:06:00,34.5,29.6,29.78,North,355,1.0,4.0,82,0.00,OVC,,0.00,WeatherDisplay:10.37,2013-03-17 00:06:00,
2013-03-16 20:16:00,34.3,29.4,29.78,North,0,2.0,4.0,82,0.00,OVC,,0.00,WeatherDisplay:10.37,2013-03-17 00:16:00,
2013-03-16 20:21:00,34.3,29.4,29.78,North,0,1.0,3.0,82,0.00,OVC,,0.00,WeatherDisplay:10.37,2013-03-17 00:21:00,
2013-03-16 20:26:00,34.3,29.4,29.78,North,0,0.0,3.0,82,0.00,OVC,,0.00,WeatherDisplay:10.37,2013-03-17 00:26:00,
2013-03-16 20:31:00,34.3,29.3,29.79,North,0,0.0,2.0,82,0.00,OVC,,0.00,WeatherDisplay:10.37,2013-03-17 00:31:00,
2013-03-16 20:41:00,34.3,29.4,29.79,North,0,0.0,2.0,82,0.00,OVC,,0.00,WeatherDisplay:10.37,2013-03-17 00:41:00,
2013-03-16 20:46:00,34.3,29.4,29.79,North,0,0.0,2.0,82,0.00,OVC,,0.00,WeatherDisplay:10.37,2013-03-17 00:46:00,
2013-03-16 20:51:00,34.3,29.4,29.79,North,0,1.0,2.0,82,0.00,OVC,,0.00,WeatherDisplay:10.37,2013-03-17 00:51:00,
2013-03-16 20:56:00,34.3,29.4,29.80,North,0,0.0,2.0,82,0.00,OVC,,0.00,WeatherDisplay:10.37,2013-03-17 00:56:00,
2013-03-16 21:01:00,34.3,29.4,29.80,North,0,1.0,2.0,82,0.00,OVC,,0.00,WeatherDisplay:10.37,2013-03-17 01:01:00,
2013-03-16 21:06:00,34.3,29.4,29.81,North,0,1.0,2.0,82,0.00,OVC,,0.00,WeatherDisplay:10.37,2013-03-17 01:06:00,
2013-03-16 21:11:00,34.3,29.4,29.81,North,0,1.0,2.0,82,0.00,OVC,,0.00,WeatherDisplay:10.37,2013-03-17 01:11:00,
2013-03-16 21:16:00,34.3,29.4,29.81,North,0,1.0,2.0,82,0.00,OVC,,0.00,WeatherDisplay:10.37,2013-03-17 01:16:00,
2013-03-16 21:22:00,34.3,29.4,29.81,North,0,0.0,2.0,82,0.00,OVC,,0.00,WeatherDisplay:10.37,2013-03-17 01:22:00,
2013-03-16 21:32:00,34.3,29.4,29.81,North,0,1.0,2.0,82,0.00,OVC,,0.00,WeatherDisplay:10.37,2013-03-17 01:32:00,
2013-03-16 21:42:00,34.3,29.4,29.82,North,0,0.0,2.0,82,0.00,OVC,,0.00,WeatherDisplay:10.37,2013-03-17 01:42:00,
2013-03-16 21:50:00,34.3,29.4,29.82,North,0,1.0,2.0,82,0.00,OVC,,0.00,WeatherDisplay:10.37,2013-03-17 01:50:00,
2013-03-16 21:55:00,34.3,29.4,29.83,North,0,1.0,2.0,82,0.00,OVC,,0.00,WeatherDisplay:10.37,2013-03-17 01:55:00,
2013-03-16 22:01:00,34.2,29.2,29.83,North,0,0.0,2.0,82,0.00,OVC,,0.00,WeatherDisplay:10.37,2013-03-17 02:01:00,
2013-03-16 22:06:00,34.2,29.2,29.83,North,0,0.0,1.0,82,0.00,OVC,,0.00,WeatherDisplay:10.37,2013-03-17 02:06:00,
2013-03-16 22:11:00,34.2,29.2,29.83,North,0,0.0,2.0,82,0.00,OVC,,0.00,WeatherDisplay:10.37,2013-03-17 02:11:00,
2013-03-16 22:16:00,34.2,29.2,29.83,North,0,0.0,2.0,82,0.00,OVC,,0.00,WeatherDisplay:10.37,2013-03-17 02:16:00,
2013-03-16 22:26:00,34.2,29.2,29.83,North,0,1.0,2.0,82,0.00,OVC,,0.00,WeatherDisplay:10.37,2013-03-17 02:26:00,
2013-03-16 22:31:00,34.2,29.2,29.84,North,0,0.0,2.0,82,0.00,OVC,,0.00,WeatherDisplay:10.37,2013-03-17 02:31:00,
2013-03-16 22:46:00,34.0,29.1,29.85,North,0,0.0,2.0,82,0.00,OVC,,0.00,WeatherDisplay:10.37,2013-03-17 02:46:00,
2013-03-16 22:51:00,34.0,29.1,29.84,North,0,0.0,2.0,82,0.00,OVC,,0.00,WeatherDisplay:10.37,2013-03-17 02:51:00,
2013-03-16 22:56:00,34.0,29.1,29.84,North,0,0.0,2.0,82,0.00,OVC,,0.00,WeatherDisplay:10.37,2013-03-17 02:56:00,
2013-03-16 23:01:00,34.2,29.2,29.84,North,0,1.0,3.0,82,0.00,OVC,,0.00,WeatherDisplay:10.37,2013-03-17 03:01:00,
2013-03-16 23:06:00,34.0,29.1,29.85,North,0,1.0,3.0,82,0.00,OVC,,0.00,WeatherDisplay:10.37,2013-03-17 03:06:00,
2013-03-16 23:11:00,34.0,29.1,29.85,North,0,1.0,2.0,82,0.00,OVC,,0.00,WeatherDisplay:10.37,2013-03-17 03:11:00,
2013-03-16 23:16:00,34.0,29.1,29.85,North,0,1.0,2.0,82,0.00,OVC,,0.00,WeatherDisplay:10.37,2013-03-17 03:16:00,
2013-03-16 23:21:00,33.8,28.9,29.85,North,0,2.0,4.0,82,0.00,OVC,,0.00,WeatherDisplay:10.37,2013-03-17 03:21:00,
2013-03-16 23:26:00,33.8,28.9,29.86,North,0,1.0,3.0,82,0.00,OVC,,0.00,WeatherDisplay:10.37,2013-03-17 03:26:00,
2013-03-16 23:32:00,33.8,28.9,29.86,North,0,1.0,5.0,82,0.00,OVC,,0.00,WeatherDisplay:10.37,2013-03-17 03:32:00,
2013-03-16 23:37:00,33.8,28.9,29.86,North,0,0.0,2.0,82,0.00,OVC,,0.00,WeatherDisplay:10.37,2013-03-17 03:37:00,
2013-03-16 23:42:00,33.8,28.9,29.86,North,0,0.0,2.0,82,0.00,OVC,,0.00,WeatherDisplay:10.37,2013-03-17 03:42:00,
2013-03-16 23:50:00,33.8,28.9,29.86,North,0,1.0,5.0,82,0.00,OVC,,0.00,WeatherDisplay:10.37,2013-03-17 03:50:00,
2013-03-16 23:55:00,33.8,28.9,29.86,North,0,1.0,2.0,82,0.00,OVC,,0.00,WeatherDisplay:10.37,2013-03-17 03:55:00,